CheckWX is a tool to help pilots better visualize weather data.  It is not intended as a substitute for an official pre-flight weather briefing.

06:45:31 UTC

ESKM METAR
Mora Airport
Sweden
Current

26 mins ago

ESKM 210620Z AUTO 01003KT 9999 FEW038/// SCT047/// 16/11 Q1012
Observed
May-21 @ 06:20 UTC
Wind
  • 010° at 3 KTS
Visibility
10,000+ meters
Flight Rules
VFR
Cloud Levels
  • Few at 3,800' AGL
  • Scattered at 4,700' AGL
Temperature
16°C / 61°F
Dewpoint
11°C / 52°F
Humidity
72%
Altimeter
29.88" Hg
Pressure
1011.92 hPa
Previous

56 mins ago

ESKM 210550Z AUTO 36004KT 9999 NCD 16/12 Q1012
Observed
May-21 @ 05:50 UTC
Wind
  • 360° at 4 KTS
Visibility
10,000+ meters
Flight Rules
VFR
Cloud Levels
  • Clear skies
Temperature
16°C / 61°F
Dewpoint
12°C / 54°F
Humidity
77%
Altimeter
29.88" Hg
Pressure
1011.92 hPa
Previous

1 hour ago

ESKM 210520Z AUTO 34004KT 9999 BKN046/// 15/11 Q1012
Observed
May-21 @ 05:20 UTC
Wind
  • 340° at 4 KTS
Visibility
10,000+ meters
Flight Rules
VFR
Cloud Levels
  • Broken at 4,600' AGL
Temperature
15°C / 59°F
Dewpoint
11°C / 52°F
Humidity
77%
Altimeter
29.88" Hg
Pressure
1011.92 hPa